Tiempo atmosférico en la estación meteorológica de Fuentesauco, Zamora (811 m.)



Fecha
DESCASC
Temp. máxima en grados centígrados (hora)
DESCASC
Temp. mínima en grados centígrados (hora)
DESCASC
Temp. media en grados centígrados
DESCASC
Racha de viento máxima en m/sg (hora)
DESCASC
Velocidad máxima media en intervalos de 10 minutos(hora)
DESCASC
Precipitaciones diarias en mm
DESCASC
Precipitaciones de 00:00 a 06:00 en mm
DESCASC
Precipitaciones de 06:00 a 12:00 en mm
DESCASC
Precipitaciones de 12:00 a 18:00 en mm
DESCASC
Precipitaciones de 18:00 a 24:00 en mm
DESCASC
23-06-2019 26.6 (13:30) 13.6 (06:50) 20.1 14.17 (14:40) 8.06 (13:10) 0 0 0 0 0
22-06-2019 29 (16:40) 10.7 (06:50) 19.8 11.67 (16:50) 7.22 (17:10) 0 0 0 0 0
21-06-2019 23.1 (18:10) 10.8 (06:00) 17 7.22 (12:00) 4.72 (09:30) 0 0 0 0 0
20-06-2019 23.9 (14:40) 13.2 (00:00) 18.5 10.56 (22:50) 8.06 (17:50) 7.4 0 0 1.6 5.8
19-06-2019 22.6 (19:50) 12.6 (00:00) 17.6 11.39 (14:30) 8.06 (14:30) 0 0 0 0 0
18-06-2019 24.8 (14:20) 13 (00:00) 18.9 16.67 (15:30) 11.39 (15:30) 0 0 0 0 0
17-06-2019 28.3 (16:40) 11.7 (00:00) 20 12.78 (16:10) 8.33 (18:40) 0 0 0 0 0
16-06-2019 27.8 (18:00) 8.6 (00:00) 18.2 8.33 (14:20) 5.28 (21:20) 0 0 0 0 0
15-06-2019 23.2 (19:10) 6.2 (00:00) 14.7 6.39 (15:00) 3.89 (06:00) 0 0 0 0 0
14-06-2019 20.5 (15:50) 6.6 (00:00) 13.5 12.5 (15:40) 8.33 (15:40) 0 0 0 0 0
13-06-2019 23.3 (16:40) 6.8 (00:00) 15 11.11 (16:40) 6.67 (16:00) 0 0 0 0 0
12-06-2019 21.6 (18:10) 4.4 (00:00) 13 9.17 (18:40) 5 (17:00) 0 0 0 0 0
11-06-2019 18.9 (17:50) 9.7 (00:00) 14.3 13.89 (18:10) 7.5 (11:50) 0 0 0 0 0
10-06-2019 22.3 (18:40) 5.8 (00:00) 14 10 (20:50) 6.67 (20:50) 0 0 0 0 0
09-06-2019 22.1 (16:20) 7 (00:00) 14.6 12.22 (15:20) 7.22 (20:50) 0 0 0 0 0
08-06-2019 23.4 (16:50) 3.6 (00:00) 13.5 8.33 (19:30) 5.83 (19:30) 0 0 0 0 0
07-06-2019 17.2 (18:10) 6.6 (00:00) 11.9 11.67 (03:40) 7.78 (01:20) 0 0 0 0 0
06-06-2019 20.3 (17:00) 5 (00:00) 12.6 20.83 (20:20) 13.89 (20:10) 3.2 0 0 0 3.2
05-06-2019 17.8 (17:30) 7.3 (00:00) 12.5 15.28 (16:10) 7.5 (11:00) 0 0 0 0 0
04-06-2019 22.3 (15:40) 11 (00:00) 16.6 13.33 (17:10) 8.89 (17:00) 0 0 0 0 0
03-06-2019 29.2 (17:20) 15.3 (00:00) 22.3 12.78 (19:30) 8.33 (18:50) 0 0 0 0 0
02-06-2019 30.7 (14:50) 15.3 (00:00) 23 12.78 (16:20) 7.5 (15:10) 0 0 0 0 0
01-06-2019 32.6 (16:50) 11.9 (00:00) 22.2 8.89 (15:30) 4.44 (15:40) 0 0 0 0 0
31-05-2019 30.3 (18:40) 9.6 (00:00) 19.9 7.78 (15:30) 4.17 (00:30) 0 0 0 0 0
30-05-2019 28.1 (18:10) 7.8 (00:00) 18 9.17 (17:20) 5.83 (16:20) 0 0 0 0 0
29-05-2019 23.3 (18:40) 6.1 (00:00) 14.7 11.67 (17:20) 6.39 (16:30) 0 0 0 0 0
28-05-2019 22.8 (19:20) 6.7 (00:00) 14.7 10.83 (22:00) 7.78 (22:20) 0 0 0 0 0

Gráficas

Temp. máximas Temp. mínimas Temp. medias Precipitaciones Rachas de viento máximas Velocidades máximas media en intervalos de 10 minutos

Datos horarios

Fecha y hora oficial Temperatura (ºC) Velocidad del viento (km/h) Dirección del viento Racha (km/h) Dirección de racha Precipitación (mm) Presión (hPa) Tendencia (hPa) Humedad (%)
2019-06-26 23:00:00 -- -- -- -- -- -- -- -- --
2019-06-26 22:00:00 25.6 10 Sudoeste 22 Sudoeste 0 -- -- 43
2019-06-26 21:00:00 28.4 16 Sudoeste 27 Sudoeste 0 -- -- 37
2019-06-26 20:00:00 30.1 18 Sudoeste 36 Sudoeste 0 -- -- 33
2019-06-26 19:00:00 31.2 19 Sudoeste 40 Sur 0 -- -- 31
2019-06-26 18:00:00 31 13 Sudoeste 35 Sudoeste 0 -- -- 32
2019-06-26 17:00:00 30.2 13 Sudoeste 42 Sudoeste 0 -- -- 34
2019-06-26 16:00:00 30.2 21 Sudoeste 39 Sudoeste 0 -- -- 33
2019-06-26 15:00:00 28.3 20 Sudoeste 39 Sudoeste 0 -- -- 36
2019-06-26 14:00:00 28.6 18 Sudoeste 38 Sudoeste 0 -- -- 36
2019-06-26 13:00:00 26.8 15 Sudoeste 36 Sudoeste 0 -- -- 39
2019-06-26 12:00:00 26.5 20 Sudoeste 35 Sudoeste 0 -- -- 40
2019-06-26 11:00:00 25.2 22 Sudoeste 37 Sudoeste 0 -- -- 44
2019-06-26 10:00:00 22.9 24 Sudoeste 36 Sudoeste 0 -- -- 51
2019-06-26 09:00:00 21.2 19 Sudoeste 28 Sudoeste 0 -- -- 57
2019-06-26 08:00:00 17.9 5 Sudoeste 10 Sudoeste 0 -- -- 74
2019-06-26 07:00:00 15.8 3 Sudeste 8 Sudeste 0 -- -- 82
2019-06-26 06:00:00 15.7 4 Sur 8 Sudeste 0 -- -- 81
2019-06-26 05:00:00 16.9 0 Calma 13 Sudeste 0 -- -- 77
2019-06-26 04:00:00 17.2 3 Sudeste 6 Este 0 -- -- 78
2019-06-26 03:00:00 16.4 0 Calma 4 Oeste 0 -- -- 78
2019-06-26 02:00:00 16.9 0 Calma 5 Sudoeste 0 -- -- 77
2019-06-26 01:00:00 17.6 0 Calma 5 Norte 0 -- -- 73
2019-06-26 00:00:00 18.5 6 Norte 10 Norte 0 -- -- 72
2019-06-25 23:00:00 19.8 8 Norte 11 Norte -- -- -- 68
2019-06-25 22:00:00 21.6 9 Nordeste 19 Norte 0 -- -- 62
2019-06-25 21:00:00 23.4 8 Norte 16 Norte 0 -- -- 57
2019-06-25 20:00:00 24.6 9 Norte 19 Noroeste 0 -- -- 53
2019-06-25 19:00:00 25.3 11 Noroeste 22 Norte 0 -- -- 52
2019-06-25 18:00:00 26.1 13 Noroeste 29 Oeste 0 -- -- 51
2019-06-25 17:00:00 25 13 Norte 26 Noroeste 0 -- -- 54
2019-06-25 16:00:00 26.3 16 Noroeste 28 Norte 0 -- -- 53
2019-06-25 15:00:00 24.5 12 Norte 27 Noroeste 0 -- -- 55
2019-06-25 14:00:00 24.4 17 Noroeste 27 Noroeste 0 -- -- 57
2019-06-25 13:00:00 22.5 7 Noroeste 15 Noroeste 0 -- -- 63
2019-06-25 12:00:00 20.9 5 Noroeste 13 Noroeste 0 -- -- 65
2019-06-25 11:00:00 18.1 9 Norte 13 Norte 0.2 -- -- 79
2019-06-25 10:00:00 16.6 7 Noroeste 13 Noroeste 0 -- -- 81
2019-06-25 09:00:00 14 6 Este 9 Este 0 -- -- 92
2019-06-25 08:00:00 12.9 6 Norte 9 Norte 0 -- -- 94
2019-06-25 07:00:00 12.7 6 Norte 13 Norte 0 -- -- 93
2019-06-25 06:00:00 13.4 8 Nordeste 12 Norte 0 -- -- 91
2019-06-25 05:00:00 14 6 Nordeste 9 Nordeste 0 -- -- 84
2019-06-25 04:00:00 14.4 5 Nordeste 10 Sudeste 0 -- -- 82
2019-06-25 03:00:00 14.9 8 Este 15 Sudeste 0 -- -- 77
2019-06-25 02:00:00 14.8 5 Sudeste 12 Sudeste 0 -- -- 80
2019-06-25 01:00:00 14.5 5 Sudoeste 24 Sudeste 0 -- -- 82
2019-06-25 00:00:00 13.8 9 Sudeste 13 Sudeste 0 -- -- 90
2019-06-24 23:00:00 13.1 5 Sudoeste 9 Sur 0 -- -- 90
2019-06-24 22:00:00 13.1 7 Oeste 18 Oeste 0 -- -- 89
2019-06-24 21:00:00 13.5 4 Sudoeste 17 Oeste 0.8 -- -- 85
2019-06-24 20:00:00 14.4 12 Oeste 27 Oeste 0 -- -- 73
2019-06-24 19:00:00 15.5 18 Oeste 37 Oeste 0 -- -- 68
2019-06-24 18:00:00 17 25 Oeste 37 Oeste 0 -- -- 65
2019-06-24 17:00:00 19.5 25 Noroeste 36 Oeste 0 -- -- 60
2019-06-24 16:00:00 21.7 20 Noroeste 34 Noroeste 0 -- -- 52
2019-06-24 15:00:00 20.7 23 Noroeste 35 Noroeste 0 -- -- 59
2019-06-24 14:00:00 23.5 21 Noroeste 32 Noroeste 0 -- -- 53
2019-06-24 13:00:00 24 5 Sudoeste 26 Sudoeste 0 -- -- 52
2019-06-24 12:00:00 22.4 9 Sudoeste 21 Sudoeste 0 -- -- 57
2019-06-24 11:00:00 20.7 4 Sur 10 Sur 0 -- -- 66
2019-06-24 10:00:00 19.3 3 Este 8 Sudeste 0 -- -- 75
2019-06-24 09:00:00 18.1 6 Sur 9 Sur 0 -- -- 81
2019-06-24 08:00:00 17 4 Sudeste 7 Sudeste 0 -- -- 84
2019-06-24 07:00:00 16.5 4 Sudeste 6 Sudeste 0 -- -- 85
2019-06-24 06:00:00 16.6 0 Calma 4 Sudoeste 0 -- -- 83
2019-06-24 05:00:00 17 0 Calma 5 Este 0 -- -- 80
2019-06-24 04:00:00 17.4 4 Noroeste 9 Noroeste 0 -- -- 80
2019-06-24 03:00:00 17.7 6 Norte 13 Nordeste 0 -- -- 79
2019-06-24 02:00:00 18.1 9 Norte 13 Norte 0 -- -- 77
2019-06-24 01:00:00 18.9 5 Norte 11 Noroeste 0 -- -- 73
2019-06-24 00:00:00 19.4 6 Noroeste 15 Noroeste 0 -- -- 56
2019-06-23 23:00:00 20.7 3 Sudeste 8 Sudoeste 0 -- -- 44
2019-06-23 22:00:00 21.8 7 Oeste 16 Oeste 0 -- -- 42
2019-06-23 21:00:00 22.8 10 Oeste 14 Oeste 0 -- -- 39
2019-06-23 20:00:00 24.2 8 Oeste 21 Noroeste 0 -- -- 33
2019-06-23 19:00:00 25.5 14 Oeste 24 Oeste 0 -- -- 29
2019-06-23 18:00:00 25.9 15 Sudoeste 32 Sudoeste 0 -- -- 26
2019-06-23 17:00:00 26.4 21 Sudoeste 33 Sudoeste 0 -- -- 22
2019-06-23 16:00:00 26.3 25 Sudoeste 43 Sudoeste 0 -- -- 22
2019-06-23 15:00:00 26.5 24 Sudoeste 51 Sudoeste 0 -- -- 22
2019-06-23 14:00:00 26.5 23 Sudoeste 45 Sudoeste 0 -- -- 23
2019-06-23 13:00:00 25.2 27 Sudoeste 44 Sudoeste 0 -- -- 24
2019-06-23 12:00:00 23.4 23 Sudoeste 32 Sur 0 -- -- 30
2019-06-23 11:00:00 21.9 17 Sur 30 Sur 0 -- -- 36
2019-06-23 10:00:00 20.6 10 Sur 22 Sur 0 -- -- 41
2019-06-23 09:00:00 17.1 5 Sur 10 Sur 0 -- -- 51
2019-06-23 08:00:00 14.5 3 Sur 6 Sur 0 -- -- 63
2019-06-23 07:00:00 13.6 3 Sudoeste 10 Oeste 0 -- -- 65
2019-06-23 06:00:00 14.1 4 Sudoeste 16 Oeste 0 -- -- 63
2019-06-23 05:00:00 15.1 14 Oeste 18 Oeste 0 -- -- 57
2019-06-23 04:00:00 15.8 6 Sudoeste 9 Sudoeste 0 -- -- 54
2019-06-23 03:00:00 16.1 7 Sudoeste 10 Sudoeste 0 -- -- 51
2019-06-23 02:00:00 16.9 4 Sudoeste 6 Oeste 0 -- -- 49
2019-06-23 01:00:00 17.3 4 Sudoeste 12 Oeste 0 -- -- 44
2019-06-23 00:00:00 18.5 9 Sudoeste 20 Sudoeste 0 -- -- 41
2019-06-22 23:00:00 21.8 15 Sudoeste 22 Sudoeste 0 -- -- 32
2019-06-22 22:00:00 23.7 16 Sudoeste 25 Sudoeste 0 -- -- 29
2019-06-22 21:00:00 26.5 22 Sudoeste 31 Sudoeste 0 -- -- 24
2019-06-22 20:00:00 27.2 16 Sudoeste 28 Sudoeste 0 -- -- 27
2019-06-22 19:00:00 28.5 21 Sudoeste 36 Sudoeste 0 -- -- 26
2019-06-22 18:00:00 28.5 21 Sudoeste 40 Sudoeste 0 -- -- 23
2019-06-22 17:00:00 29 24 Sudoeste 42 Sudoeste 0 -- -- 24
2019-06-22 16:00:00 28.7 24 Sudoeste 37 Sudoeste 0 -- -- 25
2019-06-22 15:00:00 28 23 Sudoeste 38 Sudoeste 0 -- -- 26
2019-06-22 14:00:00 27.3 22 Sudoeste 36 Sur 0 -- -- 27
2019-06-22 13:00:00 25.4 9 Sur 19 Sudoeste 0 -- -- 36
2019-06-22 12:00:00 22 4 Sudeste 12 Este 0 -- -- 46
2019-06-22 11:00:00 18.3 6 Nordeste 18 Norte 0 -- -- 58
2019-06-22 10:00:00 15.5 7 Norte 14 Norte 0 -- -- 68
2019-06-22 09:00:00 13 9 Nordeste 13 Norte 0 -- -- 76
2019-06-22 08:00:00 11.1 7 Nordeste 10 Norte 0 -- -- 83
2019-06-22 07:00:00 10.7 9 Norte 11 Norte 0 -- -- 82
2019-06-22 06:00:00 11.7 2 Este 6 Sudeste 0 -- -- 75
2019-06-22 05:00:00 12.7 3 Sudeste 17 Sudeste 0 -- -- 70
2019-06-22 04:00:00 14.1 10 Sudeste 26 Este 0 -- -- 65
2019-06-22 03:00:00 14.4 17 Sudeste 30 Este 0 -- -- 65
2019-06-22 02:00:00 14.9 21 Sudeste 27 Sudeste 0 -- -- 63
2019-06-22 01:00:00 16.2 15 Este 26 Este 0 -- -- 55
2019-06-22 00:00:00 16.3 9 Este 13 Este 0 -- -- 55
2019-06-21 23:00:00 17.5 10 Este 16 Este 0 -- -- 56
2019-06-21 22:00:00 19.5 6 Nordeste 10 Nordeste 0 -- -- 53
2019-06-21 21:00:00 22 8 Nordeste 14 Norte 0 -- -- 39
2019-06-21 20:00:00 22.8 8 Norte 19 Norte 0 -- -- 39
2019-06-21 19:00:00 22.5 11 Nordeste 24 Norte 0 -- -- 40
2019-06-21 18:00:00 22.6 4 Noroeste 17 Norte 0 -- -- 40
2019-06-21 17:00:00 21.8 8 Norte 18 Norte 0 -- -- 44
2019-06-21 16:00:00 20.9 10 Nordeste 24 Nordeste 0 -- -- 48
2019-06-21 15:00:00 20.2 6 Nordeste 24 Nordeste 0 -- -- 51
2019-06-21 14:00:00 19 8 Nordeste 24 Nordeste 0 -- -- 59
2019-06-21 13:00:00 17.4 12 Nordeste 24 Nordeste 0 -- -- 66
2019-06-21 12:00:00 16.4 15 Nordeste 26 Nordeste 0 -- -- 70
2019-06-21 11:00:00 14.5 13 Nordeste 20 Nordeste 0 -- -- 85
2019-06-21 10:00:00 12.6 14 Norte 25 Norte 0 -- -- 93
2019-06-21 09:00:00 12.2 14 Norte 20 Nordeste 0 -- -- 96
2019-06-21 08:00:00 11.5 5 Norte 12 Norte 0 -- -- 96
2019-06-21 07:00:00 11 9 Norte 17 Norte 0 -- -- 95
2019-06-21 06:00:00 10.8 6 Norte 13 Norte 0 -- -- 94
2019-06-21 05:00:00 11.1 8 Norte 10 Norte 0 -- -- 93
2019-06-21 04:00:00 11.8 6 Norte 8 Norte 0 -- -- 91
2019-06-21 03:00:00 12.4 3 Nordeste 10 Nordeste 0 -- -- 92
2019-06-21 02:00:00 12.3 7 Nordeste 14 Nordeste 0 -- -- 91
2019-06-21 01:00:00 12.7 7 Nordeste 19 Nordeste 0 -- -- 92
2019-06-21 00:00:00 13.2 17 Nordeste 30 Nordeste 0 -- -- 92
2019-06-20 23:00:00 13.8 24 Norte 38 Norte 1.4 -- -- 90
2019-06-20 22:00:00 16.7 10 Noroeste 20 Noroeste 0 -- -- 79
2019-06-20 21:00:00 17.2 10 Oeste 15 Oeste 0 -- -- 82
2019-06-20 20:00:00 16.7 5 Sudoeste 34 Oeste 2 -- -- 83
2019-06-20 19:00:00 15.3 19 Oeste 29 Oeste 2.4 -- -- 79
2019-06-20 18:00:00 16 21 Sudoeste 36 Sudoeste 0.6 -- -- 77
2019-06-20 17:00:00 21.5 4 Sudoeste 23 Oeste 1 -- -- 51
2019-06-20 16:00:00 23.1 7 Nordeste 30 Este 0 -- -- 42
2019-06-20 15:00:00 23.4 9 Norte 26 Este 0 -- -- 40
2019-06-20 14:00:00 22.5 8 Este 19 Este 0 -- -- 43
2019-06-20 13:00:00 21.5 6 Sudeste 19 Este 0 -- -- 47
2019-06-20 12:00:00 20.3 6 Nordeste 16 Nordeste 0 -- -- 51
2019-06-20 11:00:00 18.5 6 Norte 12 Norte 0 -- -- 58
2019-06-20 10:00:00 16.8 3 Norte 9 Noroeste 0 -- -- 63
2019-06-20 09:00:00 15.1 3 Noroeste 9 Norte 0 -- -- 70
2019-06-20 08:00:00 14 3 Norte 6 Noroeste 0 -- -- 72
2019-06-20 07:00:00 13.6 2 Noroeste 8 Norte 0 -- -- 72
2019-06-20 06:00:00 13.7 4 Noroeste 8 Noroeste 0 -- -- 71
2019-06-20 05:00:00 14.4 2 Noroeste 13 Noroeste 0 -- -- 68
2019-06-20 04:00:00 14.9 5 Noroeste 10 Oeste 0 -- -- 67
2019-06-20 03:00:00 14.5 5 Noroeste 13 Noroeste 0 -- -- 66
2019-06-20 02:00:00 14.8 3 Noroeste 10 Noroeste 0 -- -- 65
2019-06-20 01:00:00 15.7 9 Noroeste 16 Noroeste 0 -- -- 62
2019-06-20 00:00:00 17 7 Noroeste 12 Oeste 0 -- -- 60
2019-06-19 23:00:00 18.8 9 Noroeste 19 Noroeste 0 -- -- 55
2019-06-19 22:00:00 20.3 14 Oeste 24 Oeste 0 -- -- 50
2019-06-19 21:00:00 21.1 18 Oeste 31 Oeste 0 -- -- 48
2019-06-19 20:00:00 22.5 18 Oeste 32 Oeste 0 -- -- 45
2019-06-19 19:00:00 21.8 15 Oeste 38 Oeste 0 -- -- 48
2019-06-19 18:00:00 21.3 22 Oeste 33 Oeste 0 -- -- 51
2019-06-19 17:00:00 22.1 21 Oeste 38 Oeste 0 -- -- 50
2019-06-19 16:00:00 21.6 19 Oeste 37 Sudoeste 0 -- -- 50
2019-06-19 15:00:00 21.1 22 Oeste 41 Sudoeste 0 -- -- 52
2019-06-19 14:00:00 20.9 22 Oeste 34 Oeste 0 -- -- 49
2019-06-19 13:00:00 20.9 18 Oeste 35 Oeste 0 -- -- 48
2019-06-19 12:00:00 20.1 22 Sudoeste 32 Sudoeste 0 -- -- 49
2019-06-19 11:00:00 17.8 21 Oeste 35 Oeste 0 -- -- 65
2019-06-19 10:00:00 17 28 Sudoeste 39 Sudoeste 0 -- -- 71
2019-06-19 09:00:00 16.7 19 Sudoeste 31 Sudoeste 0 -- -- 71
2019-06-19 08:00:00 14.2 13 Sur 18 Sudoeste 0 -- -- 78
2019-06-19 07:00:00 13.9 9 Sudoeste 24 Sudoeste 0 -- -- 82
2019-06-19 06:00:00 14.9 18 Sudoeste 27 Sudoeste 0 -- -- 79
2019-06-19 05:00:00 12.8 8 Sudoeste 13 Sudoeste 0 -- -- 83
2019-06-19 04:00:00 13.2 8 Sudoeste 19 Sudoeste -- -- -- 78
2019-06-19 03:00:00 14.9 9 Sudoeste 18 Sudoeste 0 -- -- 76
2019-06-19 02:00:00 15 6 Sudoeste 21 Sudoeste 0 -- -- 75
2019-06-19 01:00:00 16.2 13 Oeste 18 Oeste 0 -- -- 72
2019-06-19 00:00:00 16.6 11 Sudoeste 17 Sudoeste 0 -- -- 62
2019-06-18 23:00:00 17.9 10 Sudoeste 26 Sudoeste 0 -- -- 57
2019-06-18 22:00:00 19.8 20 Sudoeste 36 Oeste 0 -- -- 51
2019-06-18 21:00:00 21.6 24 Sudoeste 49 Sudoeste 0 -- -- 46
2019-06-18 20:00:00 21.4 32 Sudoeste 47 Sudoeste 0 -- -- 47
2019-06-18 19:00:00 22.4 28 Sudoeste 44 Sudoeste 0 -- -- 42
2019-06-18 18:00:00 22.9 30 Sudoeste 50 Sudoeste 0 -- -- 42
2019-06-18 17:00:00 22.8 32 Sudoeste 52 Sudoeste 0 -- -- 43
2019-06-18 16:00:00 24.4 33 Sudoeste 60 Sudoeste 0 -- -- 34
2019-06-18 15:00:00 24.1 40 Sudoeste 57 Oeste 0 -- -- 34
2019-06-18 14:00:00 24.2 31 Sudoeste 51 Sur 0 -- -- 32
2019-06-18 13:00:00 23.5 33 Sudoeste 52 Sudoeste 0 -- -- 28
2019-06-18 12:00:00 22.4 30 Sudoeste 48 Sudoeste 0 -- -- 24
2019-06-18 11:00:00 21.1 32 Sudoeste 46 Sur 0 -- -- 27
2019-06-18 10:00:00 19.8 31 Sudoeste 42 Sur 0 -- -- 31
2019-06-18 09:00:00 18.3 26 Sudoeste 40 Sudoeste 0 -- -- 38
2019-06-18 08:00:00 13.7 7 Sur 14 Sudoeste 0 -- -- 46
2019-06-18 07:00:00 13.2 11 Sudoeste 27 Sudoeste 0 -- -- 46
2019-06-18 06:00:00 16.4 17 Sudoeste 23 Sudoeste 0 -- -- 37
2019-06-18 05:00:00 15.5 12 Sur 16 Sur 0 -- -- 44
2019-06-18 04:00:00 17 13 Sudeste 18 Sudeste 0 -- -- 40
2019-06-18 03:00:00 16.7 13 Sur 22 Sur 0 -- -- 41
2019-06-18 02:00:00 17.8 8 Sur 13 Sudeste 0 -- -- 38
2019-06-18 01:00:00 18.9 6 Sudoeste 24 Este 0 -- -- 37
2019-06-18 00:00:00 19.9 9 Nordeste 20 Norte 0 -- -- 35
2019-06-17 23:00:00 20.6 17 Noroeste 24 Noroeste 0 -- -- 34
2019-06-17 22:00:00 22.3 12 Noroeste 18 Noroeste 0 -- -- 32
2019-06-17 21:00:00 23.9 13 Oeste 28 Oeste 0 -- -- 24
2019-06-17 20:00:00 25 21 Sudoeste 38 Sudoeste 0 -- -- 20
2019-06-17 19:00:00 25.6 26 Sudoeste 41 Sudoeste 0 -- -- 20
2019-06-17 18:00:00 27.2 23 Sudoeste 43 Oeste 0 -- -- 18
2019-06-17 17:00:00 27.4 24 Oeste 46 Sudoeste 0 -- -- 18
2019-06-17 16:00:00 27.3 21 Sudoeste 42 Sudoeste 0 -- -- 19
2019-06-17 15:00:00 27.1 18 Sudoeste 42 Sudoeste 0 -- -- 20
2019-06-17 14:00:00 27 21 Sudoeste 41 Sudoeste 0 -- -- 19
2019-06-17 13:00:00 26.1 23 Sur 42 Sudoeste 0 -- -- 20
2019-06-17 12:00:00 24.4 16 Sur 26 Sudoeste 0 -- -- 29
2019-06-17 11:00:00 22.4 14 Sudoeste 22 Sudoeste 0 -- -- 33
2019-06-17 10:00:00 20 6 Sudoeste 14 Sudoeste 0 -- -- 50
2019-06-17 09:00:00 15.9 4 Sudoeste 17 Sudoeste 0 -- -- 68
2019-06-17 08:00:00 13 11 Sudoeste 16 Sudoeste 0 -- -- 78
2019-06-17 07:00:00 11.7 9 Sudoeste 17 Oeste 0 -- -- 80
2019-06-17 06:00:00 12.6 10 Sudoeste 17 Sudoeste 0 -- -- 76
2019-06-17 05:00:00 12.9 9 Sudoeste 18 Oeste 0 -- -- 68
2019-06-17 04:00:00 13.6 9 Sudoeste 14 Sudoeste 0 -- -- 62
2019-06-17 03:00:00 14.2 6 Sudoeste 19 Sudoeste 0 -- -- 45
2019-06-17 02:00:00 15.1 9 Sudoeste 15 Sudoeste 0 -- -- 37
2019-06-17 01:00:00 15.7 5 Sudoeste 7 Sudoeste 0 -- -- 33
2019-06-17 00:00:00 17.1 5 Sudoeste 9 Sudoeste 0 -- -- 31
2019-06-16 23:00:00 18.2 8 Sudoeste 17 Sudoeste 0 -- -- 30
2019-06-16 22:00:00 22.6 14 Oeste 28 Sudoeste 0 -- -- 23
2019-06-16 21:00:00 25.7 15 Sudoeste 27 Sur 0 -- -- 21
2019-06-16 20:00:00 26.6 17 Sudoeste 25 Sur 0 -- -- 20
2019-06-16 19:00:00 27.3 15 Sudoeste 28 Oeste 0 -- -- 19
2019-06-16 18:00:00 27.8 15 Oeste 30 Sudoeste 0 -- -- 18
2019-06-16 17:00:00 27.5 12 Noroeste 27 Sudoeste 0 -- -- 19
2019-06-16 16:00:00 26.4 9 Sudoeste 30 Sudoeste 0 -- -- 21
2019-06-16 15:00:00 26 6 Sudoeste 30 Sur 0 -- -- 20
2019-06-16 14:00:00 24.6 7 Noroeste 18 Sudoeste 0 -- -- 23
2019-06-16 13:00:00 22.7 6 Este 18 Oeste 0 -- -- 29
2019-06-16 12:00:00 20.9 7 Nordeste 13 Nordeste 0 -- -- 36
2019-06-16 11:00:00 18 7 Norte 14 Noroeste 0 -- -- 44
2019-06-16 10:00:00 15 5 Nordeste 12 Nordeste 0 -- -- 53
2019-06-16 09:00:00 12.6 8 Norte 10 Norte 0 -- -- 62
2019-06-16 08:00:00 10.7 7 Norte 9 Norte 0 -- -- 61
2019-06-16 07:00:00 8.6 5 Norte 6 Norte 0 -- -- 65
2019-06-16 06:00:00 8.7 0 Calma 4 Norte 0 -- -- 62
2019-06-16 05:00:00 9.2 0 Calma 4 Noroeste 0 -- -- 58
2019-06-16 04:00:00 10.8 4 Noroeste 9 Norte 0 -- -- 55
2019-06-16 03:00:00 11.1 2 Noroeste 6 Norte 0 -- -- 51
2019-06-16 02:00:00 13 0 Calma 4 Sudoeste 0 -- -- 46
2019-06-16 01:00:00 14.8 3 Sudoeste 12 Noroeste 0 -- -- 40
2019-06-16 00:00:00 15.5 5 Noroeste 11 Noroeste 0 -- -- 40
2019-06-15 23:00:00 16.1 2 Sudoeste 7 Norte 0 -- -- 37
2019-06-15 22:00:00 18.9 6 Noroeste 12 Noroeste 0 -- -- 32
2019-06-15 21:00:00 22 9 Noroeste 18 Noroeste 0 -- -- 27
2019-06-15 20:00:00 22.8 9 Oeste 21 Oeste 0 -- -- 26
2019-06-15 19:00:00 22.9 8 Noroeste 19 Sudoeste 0 -- -- 26
2019-06-15 18:00:00 22.6 10 Oeste 19 Oeste 0 -- -- 27
2019-06-15 17:00:00 21.7 9 Norte 19 Noroeste 0 -- -- 29
2019-06-15 16:00:00 20.3 5 Sudeste 22 Oeste 0 -- -- 33
2019-06-15 15:00:00 19.4 12 Oeste 23 Sudoeste 0 -- -- 34
2019-06-15 14:00:00 18.5 12 Noroeste 20 Noroeste 0 -- -- 38
2019-06-15 13:00:00 17.3 6 Oeste 17 Noroeste 0 -- -- 42
2019-06-15 12:00:00 15.3 5 Sudoeste 12 Oeste 0 -- -- 49
2019-06-15 11:00:00 13.7 6 Noroeste 19 Noroeste 0 -- -- 55
2019-06-15 10:00:00 12.7 10 Noroeste 20 Noroeste 0 -- -- 62
2019-06-15 09:00:00 10.6 14 Oeste 22 Noroeste 0 -- -- 72
2019-06-15 08:00:00 7.3 6 Oeste 11 Sudoeste 0 -- -- 84
2019-06-15 07:00:00 6.2 5 Oeste 21 Sudoeste 0 -- -- 86
2019-06-15 06:00:00 6.5 14 Sudoeste 20 Sudoeste 0 -- -- 84
2019-06-15 05:00:00 7.2 14 Sudoeste 22 Sudoeste 0 -- -- 80
2019-06-15 04:00:00 7.4 12 Sudoeste 17 Sudoeste 0 -- -- 78
2019-06-15 03:00:00 7.9 11 Sudoeste 16 Oeste 0 -- -- 73
2019-06-15 02:00:00 8.5 5 Sudoeste 15 Oeste 0 -- -- 69
2019-06-15 01:00:00 10.2 8 Oeste 17 Oeste 0 -- -- 62
2019-06-15 00:00:00 11.6 13 Oeste 31 Oeste 0 -- -- 58
2019-06-14 23:00:00 13.1 18 Oeste 33 Oeste 0 -- -- 53
2019-06-14 22:00:00 14.6 24 Oeste 40 Oeste 0 -- -- 45
2019-06-14 21:00:00 16.5 22 Oeste 34 Oeste 0 -- -- 38
2019-06-14 20:00:00 18.4 27 Oeste 41 Oeste 0 -- -- 33
2019-06-14 19:00:00 18.8 21 Oeste 45 Sudoeste 0 -- -- 33
2019-06-14 18:00:00 19.5 25 Oeste 44 Sudoeste 0 -- -- 33
2019-06-14 17:00:00 19.5 29 Oeste 44 Sudoeste 0 -- -- 34
2019-06-14 16:00:00 19.9 25 Oeste 45 Sudoeste 0 -- -- 32
2019-06-14 15:00:00 19.9 25 Sudoeste 39 Sudoeste 0 -- -- 30
2019-06-14 14:00:00 19.5 24 Sudoeste 43 Sudoeste 0 -- -- 32
2019-06-14 13:00:00 18.2 15 Oeste 43 Oeste 0 -- -- 34
2019-06-14 12:00:00 17.4 23 Sudoeste 38 Sudoeste 0 -- -- 35
2019-06-14 11:00:00 16.5 20 Sudoeste 31 Oeste 0 -- -- 41
2019-06-14 10:00:00 13.8 3 Norte 8 Nordeste 0 -- -- 56
2019-06-14 09:00:00 10.6 3 Noroeste 12 Sudoeste 0 -- -- 66
2019-06-14 08:00:00 7.4 8 Sudoeste 12 Sudoeste 0 -- -- 70
2019-06-14 07:00:00 6.6 2 Sudoeste 10 Oeste 0 -- -- 68
2019-06-14 06:00:00 7.7 3 Noroeste 8 Noroeste 0 -- -- 64
2019-06-14 05:00:00 8.1 3 Oeste 8 Sudoeste 0 -- -- 61
2019-06-14 04:00:00 8.8 4 Sudoeste 6 Sudoeste 0 -- -- 57
2019-06-14 03:00:00 10.4 0 Calma 9 Norte 0 -- -- 52
2019-06-14 02:00:00 11 2 Sudoeste 6 Oeste 0 -- -- 50
2019-06-14 01:00:00 12.3 0 Calma 7 Norte 0 -- -- 46
2019-06-14 00:00:00 13.6 0 Calma 9 Oeste 0 -- -- 42
2019-06-13 23:00:00 15.5 4 Noroeste 14 Noroeste 0 -- -- 38
2019-06-13 22:00:00 18 11 Noroeste 23 Noroeste 0 -- -- 35
2019-06-13 21:00:00 20.7 17 Oeste 27 Oeste 0 -- -- 30
2019-06-13 20:00:00 22.1 15 Oeste 35 Oeste 0 -- -- 28
2019-06-13 19:00:00 22.6 22 Oeste 35 Oeste 0 -- -- 27
2019-06-13 18:00:00 23 19 Oeste 39 Oeste 0 -- -- 25
2019-06-13 17:00:00 23.1 19 Oeste 40 Sudoeste 0 -- -- 24
2019-06-13 16:00:00 22.7 24 Oeste 36 Sudoeste 0 -- -- 23
2019-06-13 15:00:00 21.5 21 Sudoeste 36 Oeste 0 -- -- 25
2019-06-13 14:00:00 20.3 19 Sudoeste 38 Sudoeste 0 -- -- 29
2019-06-13 13:00:00 18.5 12 Sudoeste 25 Sudoeste 0 -- -- 32
2019-06-13 12:00:00 16.3 6 Noroeste 17 Oeste 0 -- -- 46
2019-06-13 11:00:00 14.4 7 Norte 14 Noroeste 0 -- -- 56
2019-06-13 10:00:00 12.1 9 Noroeste 15 Noroeste 0 -- -- 66
2019-06-13 09:00:00 9.6 8 Noroeste 15 Noroeste 0 -- -- 73
2019-06-13 08:00:00 7.4 9 Noroeste 15 Oeste 0 -- -- 80
2019-06-13 07:00:00 6.8 6 Noroeste 16 Noroeste 0 -- -- 80
2019-06-13 06:00:00 7.5 6 Oeste 10 Oeste 0 -- -- 69
2019-06-13 05:00:00 8.2 4 Sudoeste 12 Noroeste 0 -- -- 59
2019-06-13 04:00:00 8.2 3 Oeste 10 Noroeste 0 -- -- 53
2019-06-13 03:00:00 9.5 0 Calma 10 Noroeste 0 -- -- 46
2019-06-13 02:00:00 11.4 4 Norte 9 Norte 0 -- -- 42
2019-06-13 01:00:00 12 4 Noroeste 8 Noroeste 0 -- -- 40
2019-06-13 00:00:00 12.7 2 Noroeste 8 Noroeste 0 -- -- 36
2019-06-12 23:00:00 14.2 4 Noroeste 11 Noroeste 0 -- -- 29
2019-06-12 22:00:00 16.9 10 Noroeste 18 Noroeste 0 -- -- 27
2019-06-12 21:00:00 20.4 11 Noroeste 21 Noroeste 0 -- -- 24
2019-06-12 20:00:00 21.4 12 Noroeste 24 Oeste 0 -- -- 21
2019-06-12 19:00:00 21.3 18 Oeste 33 Sudoeste 0 -- -- 21
2019-06-12 18:00:00 21.2 5 Noroeste 28 Oeste 0 -- -- 20
2019-06-12 17:00:00 20.8 18 Oeste 31 Oeste 0 -- -- 19
2019-06-12 16:00:00 19.7 6 Sudoeste 21 Oeste 0 -- -- 23
2019-06-12 15:00:00 18.6 10 Norte 27 Noroeste 0 -- -- 27
2019-06-12 14:00:00 17 7 Norte 17 Noroeste 0 -- -- 33
2019-06-12 13:00:00 15.6 5 Este 22 Nordeste 0 -- -- 37
2019-06-12 12:00:00 13.6 7 Nordeste 19 Este 0 -- -- 39
2019-06-12 11:00:00 12.3 10 Nordeste 20 Nordeste 0 -- -- 43
2019-06-12 10:00:00 10.5 12 Nordeste 21 Norte 0 -- -- 53
2019-06-12 09:00:00 8.8 13 Nordeste 18 Nordeste 0 -- -- 60
2019-06-12 08:00:00 7.2 8 Nordeste 11 Nordeste 0 -- -- 65
2019-06-12 07:00:00 4.9 8 Nordeste 16 Norte 0 -- -- 70
2019-06-12 06:00:00 4.4 8 Nordeste 13 Nordeste 0 -- -- 72
2019-06-12 05:00:00 4.9 6 Norte 9 Nordeste 0 -- -- 69
2019-06-12 04:00:00 6.5 7 Nordeste 14 Norte 0 -- -- 64
2019-06-12 03:00:00 7.5 10 Nordeste 16 Norte 0 -- -- 61
2019-06-12 02:00:00 8 10 Nordeste 18 Nordeste 0 -- -- 58
2019-06-12 01:00:00 9.4 12 Nordeste 20 Nordeste 0 -- -- 53
2019-06-12 00:00:00 11 15 Nordeste 23 Nordeste 0 -- -- 47
2019-06-11 23:00:00 12.5 13 Nordeste 27 Nordeste 0 -- -- 43
2019-06-11 22:00:00 14.4 18 Nordeste 25 Nordeste 0 -- -- 38
2019-06-11 21:00:00 16.5 17 Norte 28 Norte 0 -- -- 31
2019-06-11 20:00:00 18.1 18 Norte 35 Norte 0 -- -- 28
2019-06-11 19:00:00 18.4 22 Norte 50 Nordeste 0 -- -- 26
2019-06-11 18:00:00 18.2 24 Norte 35 Norte 0 -- -- 25
2019-06-11 17:00:00 18.6 21 Norte 42 Nordeste 0 -- -- 25
2019-06-11 16:00:00 17.4 18 Nordeste 41 Norte 0 -- -- 25
2019-06-11 15:00:00 17.4 21 Norte 42 Norte 0 -- -- 28
2019-06-11 14:00:00 16.3 21 Norte 38 Norte 0 -- -- 31
2019-06-11 13:00:00 14.5 25 Norte 41 Norte 0 -- -- 37
2019-06-11 12:00:00 14.8 26 Nordeste 41 Norte 0 -- -- 42
2019-06-11 11:00:00 13.6 21 Norte 33 Nordeste 0 -- -- 48
2019-06-11 10:00:00 11.9 22 Norte 31 Norte 0 -- -- 55
2019-06-11 09:00:00 10.8 15 Norte 23 Norte 0 -- -- 67
2019-06-11 08:00:00 9.9 10 Nordeste 14 Nordeste 0 -- -- 69
2019-06-11 07:00:00 9.8 7 Norte 11 Norte 0 -- -- 69
2019-06-11 06:00:00 9.9 8 Nordeste 12 Nordeste 0 -- -- 70
2019-06-11 05:00:00 10.7 5 Norte 9 Norte 0 -- -- 67
2019-06-11 04:00:00 11 6 Norte 17 Nordeste 0 -- -- 67
2019-06-11 03:00:00 11.7 14 Nordeste 25 Norte 0 -- -- 66
2019-06-11 02:00:00 13.6 19 Norte 32 Norte 0 -- -- 56
2019-06-11 01:00:00 15 18 Noroeste 27 Norte 0 -- -- 45
2019-06-11 00:00:00 15.7 13 Noroeste 30 Noroeste 0 -- -- 43
2019-06-10 23:00:00 17 19 Noroeste 33 Noroeste 0 -- -- 39
2019-06-10 22:00:00 17.9 20 Noroeste 35 Noroeste 0 -- -- 28
2019-06-10 21:00:00 19.8 22 Noroeste 36 Oeste 0 -- -- 22
2019-06-10 20:00:00 21.4 22 Oeste 35 Oeste 0 -- -- 25
2019-06-10 19:00:00 22 18 Oeste 28 Oeste 0 -- -- 28
2019-06-10 18:00:00 22.2 16 Oeste 30 Noroeste 0 -- -- 26
2019-06-10 17:00:00 21.7 12 Norte 28 Noroeste 0 -- -- 29
2019-06-10 16:00:00 20.7 10 Norte 22 Nordeste 0 -- -- 32
2019-06-10 15:00:00 19.2 6 Sur 22 Noroeste 0 -- -- 35
2019-06-10 14:00:00 18.1 5 Oeste 14 Oeste 0 -- -- 39
2019-06-10 13:00:00 16.5 6 Nordeste 17 Norte 0 -- -- 46
2019-06-10 12:00:00 15.2 7 Nordeste 17 Norte 0 -- -- 52
2019-06-10 11:00:00 13.7 11 Nordeste 16 Nordeste 0 -- -- 60
2019-06-10 10:00:00 12.1 9 Nordeste 14 Nordeste 0 -- -- 70
2019-06-10 09:00:00 10.3 8 Norte 11 Norte 0 -- -- 77
2019-06-10 08:00:00 7.4 0 Calma 2 Nordeste 0 -- -- 82
2019-06-10 07:00:00 5.8 0 Calma 3 Sur 0 -- -- 84
2019-06-10 06:00:00 6.4 0 Calma 5 Norte 0 -- -- 82
2019-06-10 05:00:00 7 4 Norte 5 Norte 0 -- -- 81
2019-06-10 04:00:00 7.6 5 Nordeste 9 Nordeste 0 -- -- 79
2019-06-10 03:00:00 9.1 6 Nordeste 14 Nordeste 0 -- -- 76
2019-06-10 02:00:00 10.4 8 Nordeste 19 Nordeste 0 -- -- 71
2019-06-10 01:00:00 12.4 14 Nordeste 31 Noroeste 0 -- -- 66
2019-06-10 00:00:00 14.2 17 Noroeste 26 Noroeste 0 -- -- 53
2019-06-09 23:00:00 14.7 12 Noroeste 31 Noroeste 0 -- -- 50
2019-06-09 22:00:00 16.5 20 Noroeste 33 Noroeste 0 -- -- 45
2019-06-09 21:00:00 18.8 25 Noroeste 36 Noroeste 0 -- -- 40
2019-06-09 20:00:00 19.7 18 Oeste 36 Oeste 0 -- -- 36
2019-06-09 19:00:00 20.2 22 Oeste 33 Oeste 0 -- -- 34
2019-06-09 18:00:00 21.7 21 Oeste 41 Oeste 0 -- -- 30
2019-06-09 17:00:00 22 22 Oeste 39 Oeste 0 -- -- 30
2019-06-09 16:00:00 21.7 17 Oeste 44 Oeste 0 -- -- 29
2019-06-09 15:00:00 21.2 21 Sudoeste 40 Oeste 0 -- -- 31
2019-06-09 14:00:00 20.3 18 Oeste 29 Oeste 0 -- -- 33
2019-06-09 13:00:00 18.9 17 Oeste 28 Sudoeste 0 -- -- 38
2019-06-09 12:00:00 17.9 15 Oeste 27 Noroeste 0 -- -- 46
2019-06-09 11:00:00 16.5 13 Noroeste 25 Oeste 0 -- -- 50
2019-06-09 10:00:00 14.3 14 Oeste 21 Oeste 0 -- -- 59
2019-06-09 09:00:00 11.6 12 Oeste 19 Oeste 0 -- -- 75
2019-06-09 08:00:00 8.5 7 Sudoeste 9 Sudoeste 0 -- -- 80
2019-06-09 07:00:00 7 4 Sudoeste 7 Oeste 0 -- -- 79
2019-06-09 06:00:00 7.6 4 Sudoeste 9 Sudoeste 0 -- -- 74
2019-06-09 05:00:00 8.7 7 Sudoeste 14 Sudoeste 0 -- -- 71
2019-06-09 04:00:00 10.2 7 Oeste 14 Sudoeste 0 -- -- 65
2019-06-09 03:00:00 12.8 3 Sudoeste 12 Noroeste 0 -- -- 54
2019-06-09 02:00:00 13.7 6 Oeste 14 Oeste 0 -- -- 51
2019-06-09 01:00:00 14 4 Oeste 12 Oeste 0 -- -- 50
2019-06-09 00:00:00 15.3 5 Oeste 15 Noroeste 0 -- -- 45
2019-06-08 23:00:00 17.3 6 Oeste 13 Noroeste 0 -- -- 38
2019-06-08 22:00:00 19.2 10 Noroeste 27 Noroeste 0 -- -- 33
2019-06-08 21:00:00 21.2 9 Oeste 20 Oeste 0 -- -- 25
2019-06-08 20:00:00 22.2 13 Oeste 30 Sudoeste 0 -- -- 23
2019-06-08 19:00:00 22.6 17 Oeste 29 Oeste 0 -- -- 23
2019-06-08 18:00:00 22.9 9 Oeste 24 Sudoeste 0 -- -- 24
2019-06-08 17:00:00 23.3 9 Oeste 21 Oeste 0 -- -- 24
2019-06-08 16:00:00 22.6 9 Norte 21 Norte 0 -- -- 26
2019-06-08 15:00:00 21.3 7 Este 18 Nordeste 0 -- -- 27
2019-06-08 14:00:00 20 6 Nordeste 20 Este 0 -- -- 29
2019-06-08 13:00:00 18.3 11 Nordeste 26 Nordeste 0 -- -- 36
2019-06-08 12:00:00 16.3 10 Nordeste 26 Este 0 -- -- 41
2019-06-08 11:00:00 14.4 13 Nordeste 20 Nordeste 0 -- -- 50
2019-06-08 10:00:00 11.8 9 Norte 15 Norte 0 -- -- 61
2019-06-08 09:00:00 9.2 9 Norte 13 Norte 0 -- -- 70
2019-06-08 08:00:00 6.7 0 Calma 4 Noroeste 0 -- -- 81
2019-06-08 07:00:00 3.6 0 Calma -- -- 0 -- -- 81
2019-06-08 06:00:00 4.7 0 Calma 10 Norte 0 -- -- 80
2019-06-08 05:00:00 4.7 0 Calma 2 Nordeste 0 -- -- 79
2019-06-08 04:00:00 5.5 0 Calma 2 Sudoeste 0 -- -- 75
2019-06-08 03:00:00 7 0 Calma 12 Norte 0 -- -- 71
2019-06-08 02:00:00 7.8 6 Norte 9 Norte 0 -- -- 70
2019-06-08 01:00:00 8.8 3 Nordeste 8 Nordeste 0 -- -- 66
2019-06-08 00:00:00 10 4 Noroeste 10 Noroeste 0 -- -- 60
2019-06-07 23:00:00 11 3 Noroeste 8 Oeste 0 -- -- 58
2019-06-07 22:00:00 13.3 6 Noroeste 21 Noroeste 0 -- -- 50
2019-06-07 21:00:00 16.5 11 Noroeste 27 Oeste 0 -- -- 39
2019-06-07 20:00:00 17 15 Oeste 28 Noroeste 0 -- -- 34
2019-06-07 19:00:00 17.2 17 Noroeste 37 Oeste 0 -- -- 32
2019-06-07 18:00:00 16.2 13 Oeste 27 Oeste 0 -- -- 36
2019-06-07 17:00:00 17 18 Oeste 35 Sudoeste 0 -- -- 36
2019-06-07 16:00:00 16.5 17 Oeste 32 Oeste 0 -- -- 39
2019-06-07 15:00:00 14.8 16 Oeste 42 Oeste 0 -- -- 44
2019-06-07 14:00:00 14 18 Oeste 30 Oeste 0 -- -- 47
2019-06-07 13:00:00 12.7 20 Oeste 32 Oeste 0 -- -- 54
2019-06-07 12:00:00 11.2 18 Oeste 31 Oeste 0 -- -- 61
2019-06-07 11:00:00 9.6 20 Oeste 34 Oeste 0 -- -- 66
2019-06-07 10:00:00 8.9 19 Oeste 38 Oeste 0 -- -- 72
2019-06-07 09:00:00 8 19 Oeste 34 Oeste 0 -- -- 79
2019-06-07 08:00:00 7 22 Oeste 33 Oeste 0 -- -- 86
2019-06-07 07:00:00 6.7 18 Oeste 39 Oeste 0 -- -- 86
2019-06-07 06:00:00 6.8 13 Sudoeste 31 Oeste 0 -- -- 90
2019-06-07 05:00:00 7 17 Sudoeste 41 Sudoeste 0 -- -- 88
2019-06-07 04:00:00 6.9 24 Sudoeste 42 Sudoeste 0 -- -- 88
2019-06-07 03:00:00 7.4 26 Sudoeste 38 Sudoeste 0 -- -- 90
2019-06-07 02:00:00 7.7 27 Oeste 40 Sudoeste 0 -- -- 86
2019-06-07 01:00:00 8.6 27 Oeste 38 Oeste 0 -- -- 87
2019-06-07 00:00:00 8.4 28 Oeste 47 Oeste 0.8 -- -- 85
2019-06-06 23:00:00 9.4 28 Oeste 57 Sudoeste 2.4 -- -- 87
2019-06-06 22:00:00 14.7 42 Sudoeste 72 Sudoeste 0 -- -- 61
2019-06-06 21:00:00 16.6 42 Sudoeste 75 Sudoeste 0 -- -- 49
2019-06-06 20:00:00 17.3 49 Sudoeste 71 Sudoeste 0 -- -- 47
2019-06-06 19:00:00 18.4 45 Sudoeste 68 Sur 0 -- -- 41
2019-06-06 18:00:00 19.3 43 Sudoeste 65 Sudoeste 0 -- -- 38
2019-06-06 17:00:00 20.3 38 Sudoeste 59 Sudoeste 0 -- -- 33
2019-06-06 16:00:00 19.6 35 Sudoeste 53 Sur 0 -- -- 31
2019-06-06 15:00:00 18.7 34 Sudoeste 50 Sur 0 -- -- 31
2019-06-06 14:00:00 17.2 31 Sudoeste 46 Sudoeste 0 -- -- 31
2019-06-06 13:00:00 15.5 15 Sudoeste 32 Sudoeste 0 -- -- 40
2019-06-06 12:00:00 15 18 Sudoeste 29 Sudoeste 0 -- -- 42
2019-06-06 11:00:00 13 15 Sur 23 Sur 0 -- -- 48
2019-06-06 10:00:00 11.4 8 Sur 15 Sur 0 -- -- 54
2019-06-06 09:00:00 8.9 2 Sudoeste 9 Sur 0 -- -- 67
2019-06-06 08:00:00 6.1 6 Sudoeste 10 Sudoeste 0 -- -- 75
2019-06-06 07:00:00 5.1 6 Sudoeste 10 Sudoeste 0 -- -- 74
2019-06-06 06:00:00 5.3 5 Sudoeste 9 Sudoeste 0 -- -- 73
2019-06-06 05:00:00 5.8 6 Sudoeste 11 Sudoeste 0 -- -- 72
2019-06-06 04:00:00 7.2 9 Oeste 15 Oeste 0 -- -- 68
2019-06-06 03:00:00 6.8 6 Sudoeste 9 Oeste 0 -- -- 67
2019-06-06 02:00:00 8.3 6 Oeste 15 Oeste 0 -- -- 62
2019-06-06 01:00:00 10 12 Oeste 28 Noroeste 0 -- -- 56
2019-06-06 00:00:00 11.5 15 Noroeste 26 Noroeste 0 -- -- 50
2019-06-05 23:00:00 11.7 15 Noroeste 28 Oeste 0 -- -- 50
2019-06-05 22:00:00 12.6 16 Noroeste 29 Noroeste 0 -- -- 43
2019-06-05 21:00:00 14 19 Noroeste 32 Oeste 0 -- -- 42
2019-06-05 20:00:00 14.9 22 Oeste 36 Noroeste 0 -- -- 42
2019-06-05 19:00:00 15.6 19 Oeste 39 Oeste 0 -- -- 39
2019-06-05 18:00:00 16 22 Oeste 41 Oeste 0 -- -- 38
2019-06-05 17:00:00 16.9 23 Oeste 55 Oeste 0 -- -- 35
2019-06-05 16:00:00 17.2 25 Oeste 46 Oeste 0 -- -- 33
2019-06-05 15:00:00 16.4 23 Oeste 49 Oeste 0 -- -- 34
2019-06-05 14:00:00 15.6 23 Oeste 37 Noroeste 0 -- -- 40
2019-06-05 13:00:00 14.6 21 Oeste 37 Oeste 0 -- -- 46
2019-06-05 12:00:00 13.6 23 Noroeste 40 Oeste 0 -- -- 49
2019-06-05 11:00:00 12.3 27 Noroeste 38 Noroeste 0 -- -- 53
2019-06-05 10:00:00 10.9 24 Oeste 38 Oeste 0 -- -- 63
2019-06-05 09:00:00 9.5 24 Oeste 44 Oeste 0 -- -- 70
2019-06-05 08:00:00 8.1 24 Oeste 37 Oeste 0 -- -- 77
2019-06-05 07:00:00 7.3 16 Oeste 28 Oeste 0 -- -- 79
2019-06-05 06:00:00 7.8 15 Oeste 28 Oeste 0 -- -- 76
2019-06-05 05:00:00 9 16 Oeste 33 Oeste 0 -- -- 70
2019-06-05 04:00:00 10 18 Noroeste 34 Oeste 0 -- -- 67
2019-06-05 03:00:00 10.6 23 Noroeste 36 Noroeste 0 -- -- 64
2019-06-05 02:00:00 11.4 21 Oeste 35 Oeste 0 -- -- 62
2019-06-05 01:00:00 11.9 24 Oeste 35 Oeste 0 -- -- 69
2019-06-05 00:00:00 14.2 18 Noroeste 33 Oeste 0 -- -- 48
2019-06-04 23:00:00 15.3 20 Oeste 34 Oeste 0 -- -- 49
2019-06-04 22:00:00 15.4 19 Noroeste 31 Noroeste 0 -- -- 54
2019-06-04 21:00:00 16.6 18 Oeste 32 Oeste 0 -- -- 54
2019-06-04 20:00:00 17.9 19 Oeste 41 Oeste 0 -- -- 51
2019-06-04 19:00:00 17.5 26 Oeste 43 Oeste 0 -- -- 53
2019-06-04 18:00:00 18.3 27 Noroeste 48 Noroeste 0 -- -- 55
2019-06-04 17:00:00 19.9 32 Oeste 46 Oeste 0 -- -- 54
2019-06-04 16:00:00 21.9 24 Oeste 42 Oeste 0 -- -- 39
2019-06-04 15:00:00 21.2 24 Oeste 42 Oeste 0 -- -- 43
2019-06-04 14:00:00 20.7 22 Oeste 38 Oeste 0 -- -- 45
2019-06-04 13:00:00 19.5 21 Oeste 38 Oeste 0 -- -- 49
2019-06-04 12:00:00 17.1 22 Sudoeste 38 Oeste 0 -- -- 56
2019-06-04 11:00:00 16.1 21 Oeste 38 Oeste 0 -- -- 60
2019-06-04 10:00:00 14.5 29 Oeste 40 Oeste 0 -- -- 65
2019-06-04 09:00:00 13.2 23 Oeste 36 Sudoeste 0 -- -- 75
2019-06-04 08:00:00 11.7 20 Oeste 28 Sudoeste 0 -- -- 85
2019-06-04 07:00:00 11.1 10 Sudoeste 18 Sudoeste 0 -- -- 87
2019-06-04 06:00:00 12.2 10 Oeste 20 Oeste 0 -- -- 84
2019-06-04 05:00:00 12.7 10 Oeste 16 Oeste 0 -- -- 84
2019-06-04 04:00:00 13.4 10 Sudoeste 17 Sudoeste 0 -- -- 82
2019-06-04 03:00:00 14.4 8 Sudoeste 14 Sudoeste 0 -- -- 77
2019-06-04 02:00:00 16.1 7 Oeste 21 Oeste 0 -- -- 70
2019-06-04 01:00:00 17.6 12 Oeste 21 Oeste 0 -- -- 66
2019-06-04 00:00:00 19.5 20 Oeste 33 Oeste 0 -- -- 60
2019-06-03 23:00:00 21.7 14 Oeste 23 Oeste 0 -- -- 53
2019-06-03 22:00:00 23.7 14 Oeste 32 Oeste 0 -- -- 44
2019-06-03 21:00:00 26.7 20 Sudoeste 38 Sudoeste 0 -- -- 24
2019-06-03 20:00:00 28.1 24 Sudoeste 46 Sudoeste 0 -- -- 23
2019-06-03 19:00:00 28.9 28 Sudoeste 45 Sudoeste 0 -- -- 21
2019-06-03 18:00:00 28.7 28 Oeste 44 Oeste 0 -- -- 23
2019-06-03 17:00:00 29 22 Oeste 45 Sudoeste 0 -- -- 21
2019-06-03 16:00:00 28.9 25 Oeste 41 Oeste 0 -- -- 18
2019-06-03 15:00:00 28.1 18 Sudoeste 33 Oeste 0 -- -- 18
2019-06-03 14:00:00 27 16 Sudoeste 35 Sur 0 -- -- 19
2019-06-03 13:00:00 25.3 10 Sudoeste 23 Oeste 0 -- -- 25
2019-06-03 12:00:00 23.4 10 Oeste 18 Sudoeste 0 -- -- 31
2019-06-03 11:00:00 20.8 7 Oeste 20 Oeste 0 -- -- 35
2019-06-03 10:00:00 19.7 15 Oeste 23 Sudoeste 0 -- -- 34
2019-06-03 09:00:00 17.2 10 Oeste 18 Sudoeste 0 -- -- 47
2019-06-03 08:00:00 16 9 Sudoeste 15 Sudoeste 0 -- -- 52
2019-06-03 07:00:00 15.3 8 Sudoeste 12 Sudoeste 0 -- -- 54
2019-06-03 06:00:00 16.1 5 Sudoeste 13 Sudoeste 0 -- -- 50
2019-06-03 05:00:00 16.8 6 Sudoeste 12 Sudoeste 0 -- -- 48
2019-06-03 04:00:00 17.4 6 Sudoeste 9 Sudoeste 0 -- -- 46
2019-06-03 03:00:00 18.1 5 Sudoeste 10 Oeste 0 -- -- 41
2019-06-03 02:00:00 18.8 5 Oeste 13 Oeste 0 -- -- 40
2019-06-03 01:00:00 20.3 10 Oeste 17 Oeste 0 -- -- 37
2019-06-03 00:00:00 21.6 8 Oeste 20 Oeste 0 -- -- 35
2019-06-02 23:00:00 22.9 10 Noroeste 18 Noroeste 0 -- -- 30
2019-06-02 22:00:00 24.5 13 Noroeste 26 Noroeste 0 -- -- 27
2019-06-02 21:00:00 26.7 18 Noroeste 27 Oeste 0 -- -- 23
2019-06-02 20:00:00 28.2 18 Oeste 31 Oeste 0 -- -- 22
2019-06-02 19:00:00 29.4 19 Oeste 34 Noroeste 0 -- -- 20
2019-06-02 18:00:00 29.4 17 Oeste 33 Oeste 0 -- -- 20
2019-06-02 17:00:00 29.5 21 Oeste 46 Sudoeste 0 -- -- 19
2019-06-02 16:00:00 30 21 Oeste 43 Oeste 0 -- -- 19
2019-06-02 15:00:00 30.7 22 Oeste 39 Sudoeste 0 -- -- 18
2019-06-02 14:00:00 30.2 19 Sudoeste 33 Oeste 0 -- -- 18
2019-06-02 13:00:00 28.9 13 Oeste 28 Sudoeste 0 -- -- 19
2019-06-02 12:00:00 27.7 12 Sudoeste 23 Sudoeste 0 -- -- 17
2019-06-02 11:00:00 25.3 8 Oeste 18 Oeste 0 -- -- 24
2019-06-02 10:00:00 22.7 11 Oeste 17 Sudoeste 0 -- -- 32
2019-06-02 09:00:00 19.6 9 Sudoeste 17 Sudoeste 0 -- -- 41
2019-06-02 08:00:00 17.3 6 Sudoeste 12 Sudoeste 0 -- -- 45
2019-06-02 07:00:00 15.4 6 Sudoeste 12 Sudoeste 0 -- -- 50
2019-06-02 06:00:00 16 3 Sudoeste 13 Sudoeste 0 -- -- 48
2019-06-02 05:00:00 16.3 8 Sudoeste 11 Sudoeste 0 -- -- 47
2019-06-02 04:00:00 15.7 9 Sudoeste 12 Sudoeste 0 -- -- 46
2019-06-02 03:00:00 18.5 2 Sudoeste 6 Sudoeste 0 -- -- 39
2019-06-02 02:00:00 18.9 3 Sur 9 Oeste 0 -- -- 38
2019-06-02 01:00:00 21.5 5 Noroeste 19 Noroeste 0 -- -- 34
2019-06-02 00:00:00 23 11 Noroeste 22 Noroeste 0 -- -- 34
2019-06-01 23:00:00 22.9 3 Sudoeste 14 Oeste 0 -- -- 29
2019-06-01 22:00:00 26.5 10 Oeste 18 Noroeste 0 -- -- 24
2019-06-01 21:00:00 30.4 14 Noroeste 22 Noroeste 0 -- -- 21
2019-06-01 20:00:00 31.7 12 Noroeste 25 Oeste 0 -- -- 20
2019-06-01 19:00:00 32.3 11 Noroeste 28 Oeste 0 -- -- 18
2019-06-01 18:00:00 32.5 12 Norte 25 Oeste 0 -- -- 17
2019-06-01 17:00:00 32.5 8 Oeste 23 Norte 0 -- -- 17
2019-06-01 16:00:00 31.7 10 Sudoeste 32 Sudoeste 0 -- -- 16
2019-06-01 15:00:00 30.9 7 Norte 24 Nordeste 0 -- -- 18
2019-06-01 14:00:00 30.4 8 Noroeste 22 Oeste 0 -- -- 19
2019-06-01 13:00:00 29.2 8 Nordeste 15 Nordeste 0 -- -- 21
2019-06-01 12:00:00 27.6 6 Nordeste 13 Nordeste 0 -- -- 24
2019-06-01 11:00:00 25.4 4 Este 12 Nordeste 0 -- -- 27
2019-06-01 10:00:00 22.1 2 Sudeste 8 Este 0 -- -- 31
2019-06-01 09:00:00 19.9 2 Este 5 Este 0 -- -- 35
2019-06-01 08:00:00 15.2 0 Calma 4 Sudoeste 0 -- -- 39
2019-06-01 07:00:00 12.2 0 Calma 4 Sudoeste 0 -- -- 41
2019-06-01 06:00:00 12.2 0 Calma 4 Sudoeste 0 -- -- 40
2019-06-01 05:00:00 14.4 2 Sudoeste 9 Noroeste 0 -- -- 38
2019-06-01 04:00:00 15.6 2 Sudoeste 12 Sudeste 0 -- -- 34
2019-06-01 03:00:00 18.5 10 Sudeste 13 Sudeste 0 -- -- 31
2019-06-01 02:00:00 17.6 4 Sur 6 Sur 0 -- -- 27
2019-06-01 01:00:00 17.2 0 Calma 5 Sudoeste 0 -- -- 27
2019-06-01 00:00:00 17.6 3 Sudoeste 4 Sudoeste 0 -- -- 27
2019-05-31 23:00:00 19.8 3 Sudoeste 5 Sur 0 -- -- 24
2019-05-31 22:00:00 22.4 3 Oeste 8 Nordeste 0 -- -- 21
2019-05-31 21:00:00 28.5 8 Nordeste 14 Nordeste 0 -- -- 17
2019-05-31 20:00:00 29.9 3 Oeste 22 Nordeste 0 -- -- 15
2019-05-31 19:00:00 30.1 14 Nordeste 23 Nordeste 0 -- -- 15
2019-05-31 18:00:00 29.9 7 Sudeste 23 Norte 0 -- -- 16
2019-05-31 17:00:00 29.6 7 Nordeste 28 Nordeste 0 -- -- 17
2019-05-31 16:00:00 29.6 9 Nordeste 28 Nordeste 0 -- -- 19
2019-05-31 15:00:00 28.8 9 Norte 20 Norte 0 -- -- 21
2019-05-31 14:00:00 27.5 10 Norte 23 Norte 0 -- -- 23
2019-05-31 13:00:00 26.9 14 Norte 24 Norte 0 -- -- 26
2019-05-31 12:00:00 24.8 13 Nordeste 21 Nordeste 0 -- -- 31
2019-05-31 11:00:00 22.1 12 Nordeste 17 Nordeste 0 -- -- 38
2019-05-31 10:00:00 18.9 7 Nordeste 12 Nordeste 0 -- -- 47
2019-05-31 09:00:00 16.3 6 Norte 10 Nordeste 0 -- -- 54
2019-05-31 08:00:00 12 0 Calma 0 Calma 0 -- -- 60
2019-05-31 07:00:00 9.7 0 Calma 3 Sudoeste 0 -- -- 63
2019-05-31 06:00:00 10.2 0 Calma 2 Norte 0 -- -- 62
2019-05-31 05:00:00 10.8 0 Calma 3 Sudoeste 0 -- -- 59
2019-05-31 04:00:00 11.7 2 Sudoeste 8 Nordeste 0 -- -- 56
2019-05-31 03:00:00 13 9 Nordeste 11 Este 0 -- -- 55
2019-05-31 02:00:00 14.2 6 Este 13 Nordeste 0 -- -- 50
2019-05-31 01:00:00 18.2 9 Este 19 Este 0 -- -- 39
2019-05-31 00:00:00 19.9 16 Este 23 Este 0 -- -- 35
2019-05-30 23:00:00 20.1 14 Este 18 Nordeste 0 -- -- 34
2019-05-30 22:00:00 22.5 13 Nordeste 22 Nordeste 0 -- -- 29
2019-05-30 21:00:00 26.5 14 Nordeste 26 Nordeste 0 -- -- 24
2019-05-30 20:00:00 27.7 17 Nordeste 30 Nordeste 0 -- -- 20
2019-05-30 19:00:00 27.9 18 Nordeste 33 Norte 0 -- -- 21
2019-05-30 18:00:00 27.9 16 Nordeste 33 Nordeste 0 -- -- 19
2019-05-30 17:00:00 27.8 20 Nordeste 33 Nordeste 0 -- -- 20
2019-05-30 16:00:00 27 14 Nordeste 31 Nordeste 0 -- -- 21
2019-05-30 15:00:00 25.8 13 Nordeste 28 Nordeste 0 -- -- 24
2019-05-30 14:00:00 24.3 16 Nordeste 28 Nordeste 0 -- -- 28
2019-05-30 13:00:00 22.8 17 Nordeste 32 Nordeste 0 -- -- 32
2019-05-30 12:00:00 20.5 15 Este 26 Nordeste 0 -- -- 40
2019-05-30 11:00:00 18.5 17 Este 27 Este 0 -- -- 46
2019-05-30 10:00:00 15.9 12 Nordeste 18 Nordeste 0 -- -- 52
2019-05-30 09:00:00 12.7 8 Nordeste 12 Norte 0 -- -- 66
2019-05-30 08:00:00 10.5 10 Nordeste 14 Norte 0 -- -- 76
2019-05-30 07:00:00 8.1 9 Nordeste 9 Norte 0 -- -- 79
2019-05-30 06:00:00 8.1 3 Noroeste 9 Nordeste 0 -- -- 76
2019-05-30 05:00:00 8.6 0 Calma 8 Sudeste 0 -- -- 72
2019-05-30 04:00:00 10.4 3 Sudeste 10 Este 0 -- -- 70
2019-05-30 03:00:00 11.8 8 Este 14 Este 0 -- -- 67
2019-05-30 02:00:00 13.2 9 Este 16 Este 0 -- -- 63
2019-05-30 01:00:00 14.2 8 Este 21 Este 0 -- -- 57
2019-05-30 00:00:00 15.8 16 Este 22 Este 0 -- -- 53
2019-05-29 23:00:00 16.7 13 Este 18 Este 0 -- -- 50
2019-05-29 22:00:00 18.8 13 Este 21 Este 0 -- -- 43
2019-05-29 21:00:00 21.2 15 Este 27 Este 0 -- -- 37
2019-05-29 20:00:00 22.6 21 Este 32 Este 0 -- -- 34
2019-05-29 19:00:00 23.3 19 Nordeste 36 Nordeste 0 -- -- 32
2019-05-29 18:00:00 23 20 Nordeste 42 Este 0 -- -- 33
2019-05-29 17:00:00 22.4 20 Nordeste 36 Nordeste 0 -- -- 34
2019-05-29 16:00:00 21.9 18 Nordeste 37 Nordeste 0 -- -- 35
2019-05-29 15:00:00 20.9 21 Nordeste 40 Nordeste 0 -- -- 37
2019-05-29 14:00:00 19.2 20 Nordeste 35 Este 0 -- -- 40
2019-05-29 13:00:00 17.5 20 Este 34 Este 0 -- -- 42
2019-05-29 12:00:00 16.3 22 Nordeste 36 Este 0 -- -- 45
2019-05-29 11:00:00 14 18 Este 34 Este 0 -- -- 52
2019-05-29 10:00:00 12.1 19 Este 35 Este 0 -- -- 58
2019-05-29 09:00:00 10.2 13 Este 22 Este 0 -- -- 66
2019-05-29 08:00:00 8.3 9 Este 14 Este 0 -- -- 71
2019-05-29 07:00:00 6.3 7 Este 13 Este 0 -- -- 75
2019-05-29 06:00:00 6.8 4 Sudeste 12 Este 0 -- -- 71
2019-05-29 05:00:00 7.7 9 Este 18 Este 0 -- -- 70
2019-05-29 04:00:00 8 11 Nordeste 26 Nordeste 0 -- -- 65
2019-05-29 03:00:00 9.3 17 Este 30 Este 0 -- -- 61
2019-05-29 02:00:00 9.4 14 Nordeste 19 Nordeste 0 -- -- 58
2019-05-29 01:00:00 11.1 11 Nordeste 28 Nordeste 0 -- -- 51
2019-05-29 00:00:00 12.8 22 Nordeste 31 Este 0 -- -- 48
2019-05-28 23:00:00 14.8 21 Nordeste 39 Nordeste 0 -- -- 47
2019-05-28 22:00:00 17.4 28 Nordeste 39 Nordeste 0 -- -- 42
2019-05-28 21:00:00 20.2 26 Nordeste 37 Nordeste 0 -- -- 31
2019-05-28 20:00:00 22.2 23 Norte 35 Nordeste 0 -- -- 27
2019-05-28 19:00:00 22.6 11 Norte 30 Nordeste 0 -- -- 26
2019-05-28 18:00:00 22.1 18 Norte 37 Nordeste 0 -- -- 27
2019-05-28 17:00:00 22 19 Norte 32 Nordeste 0 -- -- 28
2019-05-28 16:00:00 21.3 19 Nordeste 30 Nordeste 0 -- -- 28
2019-05-28 15:00:00 19.9 17 Nordeste 31 Nordeste 0 -- -- 31
2019-05-28 14:00:00 18.4 15 Nordeste 28 Nordeste 0 -- -- 35
2019-05-28 13:00:00 16.8 14 Nordeste 28 Este 0 -- -- 41
2019-05-28 12:00:00 15.4 17 Nordeste 30 Norte 0 -- -- 46
2019-05-28 11:00:00 13.8 14 Nordeste 32 Este 0 -- -- 52
2019-05-28 10:00:00 12 18 Este 29 Este 0 -- -- 58
2019-05-28 09:00:00 10.2 22 Este 31 Este 0 -- -- 65
2019-05-28 08:00:00 8.3 13 Nordeste 18 Nordeste 0 -- -- 76
2019-05-28 07:00:00 6.9 8 Nordeste 14 Este 0 -- -- 79
2019-05-28 06:00:00 8.3 10 Nordeste 23 Nordeste 0 -- -- 74
2019-05-28 05:00:00 9.3 17 Este 23 Nordeste 0 -- -- 73
2019-05-28 04:00:00 10.1 18 Nordeste 26 Este 0 -- -- 70
2019-05-28 03:00:00 10.7 12 Nordeste 27 Nordeste 0 -- -- 72
2019-05-28 02:00:00 11.6 15 Nordeste 20 Nordeste 0 -- -- 72
2019-05-28 01:00:00 13.5 17 Nordeste 34 Nordeste 0 -- -- 66
2019-05-28 00:00:00 16 26 Nordeste 39 Nordeste 0 -- -- 60